Time;durP1;ratioP1;P1;durP2;ratioP2;P2;SDS_P1;SDS_P2;PMS_P1;PMS_P2;Temp;Humidity;BMP_temperature;BMP_pressure;BME280_temperature;BME280_humidity;BME280_pressure;Samples;Min_cycle;Max_cycle;Signal;HPM_P1;HPM_P2
2023/12/25 00:01:06;;;;;;;14.25;6.93;;;-2.30;99.90;;;;;;5029500;28;20659;-85
2023/12/25 00:03:34;;;;;;;16.20;7.07;;;-2.30;99.90;;;;;;5032540;28;20189;-85
2023/12/25 00:06:13;;;;;;;17.35;8.48;;;-2.30;99.90;;;;;;5044646;28;20244;-86
2023/12/25 00:08:41;;;;;;;17.40;7.68;;;-2.30;99.90;;;;;;5033007;28;20186;-86
2023/12/25 00:11:10;;;;;;;20.15;8.30;;;-2.30;99.90;;;;;;5049428;28;20256;-87
2023/12/25 00:13:38;;;;;;;23.88;9.30;;;-2.30;99.90;;;;;;5032323;28;20244;-85
2023/12/25 00:16:05;;;;;;;26.67;9.05;;;-2.40;99.90;;;;;;5046468;28;20268;-86
2023/12/25 00:18:32;;;;;;;19.38;9.02;;;-2.30;99.90;;;;;;5030322;28;20732;-86
2023/12/25 00:21:00;;;;;;;16.17;9.10;;;-2.40;99.90;;;;;;5046678;28;20642;-86
2023/12/25 00:23:28;;;;;;;16.70;7.75;;;-2.30;99.90;;;;;;5029877;28;20208;-86
2023/12/25 00:25:55;;;;;;;22.92;8.35;;;-2.30;99.90;;;;;;5029715;28;20201;-86
2023/12/25 00:28:23;;;;;;;21.73;8.63;;;-2.30;99.90;;;;;;5031472;28;20603;-86
2023/12/25 00:30:50;;;;;;;18.08;8.93;;;-2.20;99.90;;;;;;5046949;28;20178;-86
2023/12/25 00:33:18;;;;;;;20.63;9.48;;;-2.20;99.90;;;;;;5046560;28;20205;-85
2023/12/25 00:35:46;;;;;;;22.35;9.30;;;-2.20;99.90;;;;;;5032017;28;20213;-86
2023/12/25 00:38:13;;;;;;;17.52;8.70;;;-2.20;99.90;;;;;;5011691;28;20220;-87
2023/12/25 00:40:42;;;;;;;22.10;9.38;;;-2.20;99.90;;;;;;5044005;28;20273;-85
2023/12/25 00:43:10;;;;;;;19.83;9.00;;;-2.20;99.90;;;;;;5028865;28;20261;-86
2023/12/25 00:45:39;;;;;;;22.50;9.98;;;-2.20;99.90;;;;;;5029587;28;20205;-87
2023/12/25 00:48:06;;;;;;;17.55;9.15;;;-2.30;99.90;;;;;;5033447;28;20190;-87
2023/12/25 00:50:34;;;;;;;20.98;8.95;;;-2.30;99.90;;;;;;5031354;28;20259;-87
2023/12/25 00:53:03;;;;;;;20.25;8.85;;;-2.20;99.90;;;;;;5029399;28;20281;-86
2023/12/25 00:55:31;;;;;;;17.73;8.30;;;-2.20;99.90;;;;;;5028789;28;20271;-87
2023/12/25 00:57:59;;;;;;;17.92;8.85;;;-2.20;99.90;;;;;;5013727;28;20214;-86
2023/12/25 01:00:28;;;;;;;24.42;9.65;;;-2.20;99.90;;;;;;5029235;28;20270;-85
2023/12/25 01:02:55;;;;;;;15.55;7.90;;;-2.20;99.90;;;;;;5014932;28;20243;-86
2023/12/25 01:05:24;;;;;;;17.73;8.18;;;-2.20;99.90;;;;;;5044800;28;20205;-85
2023/12/25 01:07:51;;;;;;;21.85;9.00;;;-2.20;99.90;;;;;;5030087;28;20880;-86
2023/12/25 01:10:19;;;;;;;17.83;8.40;;;-2.20;99.90;;;;;;5029778;28;20205;-86
2023/12/25 01:12:47;;;;;;;17.60;8.50;;;-2.10;99.90;;;;;;5032242;28;20226;-87
2023/12/25 01:15:15;;;;;;;18.92;8.40;;;-2.10;99.90;;;;;;5030025;28;20282;-86
2023/12/25 01:17:42;;;;;;;18.20;7.70;;;-2.20;99.90;;;;;;5031201;28;20213;-86
2023/12/25 01:20:10;;;;;;;22.63;8.00;;;-2.10;99.90;;;;;;5030115;28;20285;-86
2023/12/25 01:22:38;;;;;;;22.38;7.78;;;-2.20;99.90;;;;;;5029061;28;20213;-85
2023/12/25 01:25:07;;;;;;;15.65;6.68;;;-2.20;99.90;;;;;;5028494;28;20205;-86
2023/12/25 01:27:35;;;;;;;16.80;7.13;;;-2.20;99.90;;;;;;5044884;28;20193;-86
2023/12/25 01:30:03;;;;;;;14.50;6.50;;;-2.30;99.90;;;;;;5029422;28;20655;-86
2023/12/25 01:32:31;;;;;;;15.02;6.28;;;-2.30;99.90;;;;;;5029786;28;20260;-86
2023/12/25 01:34:58;;;;;;;15.07;6.53;;;-2.30;99.90;;;;;;5029533;28;20518;-86
2023/12/25 01:37:26;;;;;;;16.05;6.05;;;-2.30;99.90;;;;;;5011552;28;20264;-86
2023/12/25 01:39:53;;;;;;;9.88;5.40;;;-2.20;99.90;;;;;;5028135;28;20265;-86
2023/12/25 01:42:21;;;;;;;12.82;5.88;;;-2.20;99.90;;;;;;5029547;28;20240;-86
2023/12/25 01:44:48;;;;;;;17.55;6.47;;;-2.20;99.90;;;;;;5027713;28;20248;-85
2023/12/25 01:47:18;;;;;;;17.67;6.45;;;-2.20;99.90;;;;;;5044280;28;20185;-85
2023/12/25 01:49:47;;;;;;;14.07;6.25;;;-2.30;99.90;;;;;;5028171;28;20224;-86
2023/12/25 01:52:17;;;;;;;13.82;5.60;;;-2.30;99.90;;;;;;5044603;28;20186;-86
2023/12/25 01:54:45;;;;;;;14.70;5.65;;;-2.30;99.90;;;;;;5044851;28;20285;-86
2023/12/25 01:57:12;;;;;;;10.60;4.65;;;-2.20;99.90;;;;;;5028022;28;20679;-86
2023/12/25 01:59:40;;;;;;;18.83;7.00;;;-2.30;99.90;;;;;;5027947;28;20360;-86
2023/12/25 02:02:07;;;;;;;14.85;5.78;;;-2.30;99.90;;;;;;5032551;28;20614;-86
2023/12/25 02:04:35;;;;;;;13.35;5.55;;;-2.30;99.90;;;;;;5049215;28;20182;-86
2023/12/25 02:07:03;;;;;;;12.70;4.93;;;-2.30;99.90;;;;;;5047682;28;20189;-87
2023/12/25 02:09:31;;;;;;;10.98;4.68;;;-2.20;99.90;;;;;;5048079;28;20185;-86
2023/12/25 02:11:58;;;;;;;11.50;4.40;;;-2.20;99.90;;;;;;5048324;28;20233;-86
2023/12/25 02:14:26;;;;;;;12.35;5.38;;;-2.20;99.90;;;;;;5051726;28;20656;-86
2023/12/25 02:16:54;;;;;;;10.13;4.60;;;-2.30;99.90;;;;;;5051456;28;20217;-86
2023/12/25 02:19:29;;;;;;;9.93;4.55;;;-2.30;99.90;;;;;;5051670;28;20221;-86
2023/12/25 02:21:58;;;;;;;17.80;5.68;;;-2.20;99.90;;;;;;5051592;28;20192;-86
2023/12/25 02:24:31;;;;;;;10.07;4.32;;;-2.20;99.90;;;;;;5051549;28;20869;-86
2023/12/25 02:26:58;;;;;;;9.05;4.07;;;-2.20;99.90;;;;;;5051329;28;20178;-86
2023/12/25 02:29:26;;;;;;;13.18;4.78;;;-2.20;99.90;;;;;;5051415;28;20600;-86
2023/12/25 02:31:53;;;;;;;8.90;3.83;;;-2.30;99.90;;;;;;5051371;28;20199;-85
2023/12/25 02:34:22;;;;;;;11.32;4.20;;;-2.30;99.90;;;;;;5052617;28;20205;-86
2023/12/25 02:36:50;;;;;;;9.73;4.10;;;-2.30;99.90;;;;;;5050960;28;20299;-86
2023/12/25 02:39:17;;;;;;;10.50;4.18;;;-2.30;99.90;;;;;;5051240;28;20182;-86
2023/12/25 02:41:45;;;;;;;9.57;3.80;;;-2.30;99.90;;;;;;5051499;28;20810;-87
2023/12/25 02:44:13;;;;;;;15.23;4.80;;;-2.20;99.90;;;;;;5051506;28;20640;-86
2023/12/25 02:46:42;;;;;;;14.18;5.18;;;-2.20;99.90;;;;;;5052622;28;20196;-87
2023/12/25 02:49:10;;;;;;;16.13;4.70;;;-2.20;99.90;;;;;;5043635;28;20668;-86
2023/12/25 02:51:38;;;;;;;9.77;4.43;;;-2.20;99.90;;;;;;5032553;28;20598;-86
2023/12/25 02:54:05;;;;;;;14.85;4.72;;;-2.20;99.90;;;;;;5031199;28;20261;-85
2023/12/25 02:56:32;;;;;;;9.48;3.55;;;-2.20;99.90;;;;;;5047317;28;20178;-86
2023/12/25 02:59:00;;;;;;;10.50;3.67;;;-2.30;99.90;;;;;;5047484;28;20205;-86
2023/12/25 03:01:27;;;;;;;8.07;3.25;;;-2.20;99.90;;;;;;5047454;28;20182;-86
2023/12/25 03:03:55;;;;;;;11.30;3.90;;;-2.20;99.90;;;;;;5047368;28;20186;-86
2023/12/25 03:06:22;;;;;;;6.47;3.20;;;-2.30;99.90;;;;;;5032483;28;20237;-87
2023/12/25 03:08:51;;;;;;;10.02;3.35;;;-2.30;99.90;;;;;;5047262;28;20293;-86
2023/12/25 03:11:19;;;;;;;8.93;3.92;;;-2.20;99.90;;;;;;5047018;28;20233;-87
2023/12/25 03:13:47;;;;;;;9.80;3.75;;;-2.20;99.90;;;;;;5049107;28;20189;-86
2023/12/25 03:16:14;;;;;;;7.30;3.22;;;-2.20;99.90;;;;;;5031415;28;20896;-86
2023/12/25 03:18:42;;;;;;;9.02;3.55;;;-2.20;99.90;;;;;;5048344;28;20221;-86
2023/12/25 03:21:09;;;;;;;9.40;3.33;;;-2.20;99.90;;;;;;5033039;28;20250;-87
2023/12/25 03:23:37;;;;;;;9.60;3.38;;;-2.20;99.90;;;;;;5032691;28;20555;-87
2023/12/25 03:26:05;;;;;;;9.40;3.65;;;-2.30;99.90;;;;;;5046734;28;20214;-86
2023/12/25 03:28:32;;;;;;;7.80;3.33;;;-2.20;99.90;;;;;;5048695;28;20200;-85
2023/12/25 03:31:00;;;;;;;11.40;3.90;;;-2.20;99.90;;;;;;5049942;28;20214;-86
2023/12/25 03:33:27;;;;;;;8.45;3.75;;;-2.30;99.90;;;;;;5030825;28;20197;-86
2023/12/25 03:35:55;;;;;;;10.80;3.25;;;-2.30;99.90;;;;;;5030908;28;20197;-86
2023/12/25 03:38:22;;;;;;;8.32;3.58;;;-2.30;99.90;;;;;;5048372;28;20260;-87
2023/12/25 03:40:50;;;;;;;8.80;3.97;;;-2.20;99.90;;;;;;5048967;28;20194;-86
2023/12/25 03:43:17;;;;;;;9.13;4.05;;;-2.30;99.90;;;;;;5050407;28;20190;-87
2023/12/25 03:45:45;;;;;;;9.65;3.67;;;-2.20;99.90;;;;;;5034763;28;20219;-86
2023/12/25 03:48:12;;;;;;;7.75;3.03;;;-2.30;99.90;;;;;;5032026;28;20201;-86
2023/12/25 03:50:39;;;;;;;11.93;3.38;;;-2.20;99.90;;;;;;5047973;28;20696;-86
2023/12/25 03:53:08;;;;;;;11.38;3.85;;;-2.30;99.90;;;;;;5046381;28;20209;-86
2023/12/25 03:55:38;;;;;;;11.88;3.72;;;-2.20;99.90;;;;;;5027214;28;20189;-86
2023/12/25 03:58:06;;;;;;;9.43;3.58;;;-2.30;99.90;;;;;;5044308;28;20232;-86
2023/12/25 04:00:35;;;;;;;8.02;3.67;;;-2.30;99.90;;;;;;5047969;28;20205;-87
2023/12/25 04:03:03;;;;;;;9.35;4.15;;;-2.30;99.90;;;;;;5030436;28;20590;-85
2023/12/25 04:05:31;;;;;;;12.40;3.53;;;-2.20;99.90;;;;;;5029580;28;20278;-85
2023/12/25 04:07:59;;;;;;;9.82;4.15;;;-2.20;99.90;;;;;;5046847;28;20194;-85
2023/12/25 04:10:26;;;;;;;15.68;5.18;;;-2.30;99.90;;;;;;5027740;28;20204;-86
2023/12/25 04:12:54;;;;;;;12.35;4.57;;;-2.30;99.90;;;;;;5027202;28;20284;-86
2023/12/25 04:15:21;;;;;;;12.25;4.22;;;-2.30;99.90;;;;;;5029843;28;20554;-86
2023/12/25 04:17:49;;;;;;;12.55;4.82;;;-2.30;99.90;;;;;;5030440;28;20216;-85
2023/12/25 04:20:16;;;;;;;13.63;5.53;;;-2.20;99.90;;;;;;5026255;28;20224;-86
2023/12/25 04:22:44;;;;;;;13.73;5.00;;;-2.20;99.90;;;;;;5011566;28;20693;-86
2023/12/25 04:25:11;;;;;;;10.23;4.15;;;-2.30;99.90;;;;;;5026144;28;20198;-85
2023/12/25 04:27:42;;;;;;;9.63;4.28;;;-2.20;99.90;;;;;;5043244;28;20194;-85
2023/12/25 04:30:10;;;;;;;9.93;3.25;;;-2.20;99.90;;;;;;5032239;28;20280;-86
2023/12/25 04:32:38;;;;;;;10.15;4.38;;;-2.20;99.90;;;;;;5047566;28;20190;-86
2023/12/25 04:35:06;;;;;;;11.07;4.55;;;-2.20;99.90;;;;;;5045942;28;20225;-86
2023/12/25 04:37:33;;;;;;;8.88;4.30;;;-2.20;99.90;;;;;;5044066;28;20206;-85
2023/12/25 04:40:01;;;;;;;8.85;4.28;;;-2.20;99.90;;;;;;5028297;28;20269;-86
2023/12/25 04:42:28;;;;;;;10.93;4.63;;;-2.20;99.90;;;;;;5026282;28;20194;-85
2023/12/25 04:44:56;;;;;;;12.18;3.78;;;-2.20;99.90;;;;;;5041894;28;20220;-85
2023/12/25 04:47:24;;;;;;;9.93;4.80;;;-2.20;99.90;;;;;;5027041;28;20178;-85
2023/12/25 04:49:52;;;;;;;12.82;4.93;;;-2.20;99.90;;;;;;5026627;28;20193;-86
2023/12/25 04:52:19;;;;;;;11.85;4.78;;;-2.20;99.90;;;;;;5026249;28;20185;-86
2023/12/25 04:54:46;;;;;;;12.45;5.28;;;-2.20;99.90;;;;;;5040917;28;20723;-86
2023/12/25 04:57:14;;;;;;;18.00;5.82;;;-2.20;99.90;;;;;;5044683;28;20197;-86
2023/12/25 04:59:41;;;;;;;14.98;5.35;;;-2.20;99.90;;;;;;5046029;28;20192;-87
2023/12/25 05:02:09;;;;;;;11.85;5.10;;;-2.20;99.90;;;;;;5044847;28;20261;-86
2023/12/25 05:04:37;;;;;;;11.65;4.90;;;-2.20;99.90;;;;;;5027376;28;20217;-85
2023/12/25 05:07:05;;;;;;;8.27;4.32;;;-2.20;99.90;;;;;;5047220;28;20229;-85
2023/12/25 05:09:32;;;;;;;7.65;4.28;;;-2.10;99.90;;;;;;5046622;28;20254;-86
2023/12/25 05:12:00;;;;;;;8.65;4.80;;;-2.10;99.90;;;;;;5063828;28;20241;-86
2023/12/25 05:14:28;;;;;;;9.90;4.18;;;-2.10;99.90;;;;;;5050030;28;20195;-85
2023/12/25 05:16:56;;;;;;;9.88;5.05;;;-2.10;99.90;;;;;;5050400;28;20177;-86
2023/12/25 05:19:23;;;;;;;13.93;5.78;;;-2.20;99.90;;;;;;5047895;28;20332;-86
2023/12/25 05:21:51;;;;;;;9.75;4.35;;;-2.20;99.90;;;;;;5048412;28;20192;-86
2023/12/25 05:24:18;;;;;;;9.15;4.35;;;-2.20;99.90;;;;;;5050425;28;20187;-85
2023/12/25 05:26:46;;;;;;;11.75;4.38;;;-2.20;99.90;;;;;;5047967;28;20667;-87
2023/12/25 05:29:13;;;;;;;13.20;4.60;;;-2.10;99.90;;;;;;5050393;28;20197;-87
2023/12/25 05:31:41;;;;;;;9.43;5.00;;;-2.10;99.90;;;;;;5036403;28;20683;-86
2023/12/25 05:34:08;;;;;;;10.85;4.43;;;-2.20;99.90;;;;;;5045354;28;20213;-86
2023/12/25 05:36:36;;;;;;;9.35;4.43;;;-2.10;99.90;;;;;;5044504;28;20205;-86
2023/12/25 05:39:03;;;;;;;8.73;4.68;;;-2.20;99.90;;;;;;5047066;28;20228;-87
2023/12/25 05:41:43;;;;;;;9.02;3.65;;;-2.20;99.90;;;;;;5028279;28;20202;-85
2023/12/25 05:44:10;;;;;;;11.70;5.00;;;-2.10;99.90;;;;;;5041919;28;20197;-85
2023/12/25 05:46:38;;;;;;;8.93;4.47;;;-2.10;99.90;;;;;;5050363;28;20193;-86
2023/12/25 05:49:05;;;;;;;11.57;4.50;;;-2.10;99.90;;;;;;5053187;28;20188;-87
2023/12/25 05:51:33;;;;;;;8.18;3.95;;;-2.20;99.90;;;;;;5053655;28;20189;-86
2023/12/25 05:54:01;;;;;;;11.77;4.82;;;-2.10;99.90;;;;;;5052358;28;20192;-86
2023/12/25 05:56:29;;;;;;;6.95;3.67;;;-2.10;99.90;;;;;;5035558;28;20937;-85
2023/12/25 05:58:56;;;;;;;8.15;3.30;;;-2.10;99.90;;;;;;5049564;28;20213;-86
2023/12/25 06:01:25;;;;;;;10.07;3.08;;;-2.10;99.90;;;;;;5053009;28;20949;-84
2023/12/25 06:03:52;;;;;;;5.45;2.72;;;-2.10;99.90;;;;;;5053706;28;20185;-86
2023/12/25 06:06:20;;;;;;;4.53;2.60;;;-2.00;99.90;;;;;;5052970;28;20200;-86
2023/12/25 06:08:48;;;;;;;6.28;3.05;;;-2.00;99.90;;;;;;5051730;28;20655;-86
2023/12/25 06:11:15;;;;;;;6.10;2.75;;;-2.00;99.90;;;;;;5055158;28;20298;-86
2023/12/25 06:13:43;;;;;;;7.43;3.22;;;-2.10;99.90;;;;;;5052812;28;20267;-85
2023/12/25 06:16:10;;;;;;;7.75;3.40;;;-2.00;99.90;;;;;;5050641;28;20254;-86
2023/12/25 06:18:37;;;;;;;6.35;2.60;;;-2.00;99.90;;;;;;5051927;28;20212;-86
2023/12/25 06:21:05;;;;;;;7.55;3.13;;;-2.00;99.90;;;;;;5052858;28;20185;-86
2023/12/25 06:23:33;;;;;;;5.55;3.10;;;-2.10;99.90;;;;;;5049241;28;20652;-85
2023/12/25 06:26:00;;;;;;;6.75;3.05;;;-2.00;99.90;;;;;;5052545;28;20289;-86
2023/12/25 06:28:28;;;;;;;5.93;3.03;;;-2.00;99.90;;;;;;5053114;28;20274;-86
2023/12/25 06:30:55;;;;;;;6.95;3.30;;;-2.10;99.90;;;;;;5054428;28;20185;-85
2023/12/25 06:33:22;;;;;;;6.88;2.95;;;-2.10;99.90;;;;;;5054277;28;20185;-86
2023/12/25 06:35:51;;;;;;;8.02;2.90;;;-2.00;99.90;;;;;;5069659;28;20322;-86
2023/12/25 06:38:19;;;;;;;6.40;3.20;;;-2.00;99.90;;;;;;5068441;28;20197;-85
2023/12/25 06:40:46;;;;;;;6.32;3.10;;;-2.00;99.90;;;;;;5046774;28;20185;-86
2023/12/25 06:43:14;;;;;;;6.40;2.55;;;-2.00;99.90;;;;;;5045235;28;20194;-86
2023/12/25 06:45:41;;;;;;;7.93;2.83;;;-2.00;99.90;;;;;;5026244;28;20200;-85
2023/12/25 06:48:08;;;;;;;6.18;3.15;;;-2.00;99.90;;;;;;5042994;28;20222;-86
2023/12/25 06:50:38;;;;;;;6.38;2.83;;;-2.00;99.90;;;;;;5041308;28;21594;-86
2023/12/25 06:53:07;;;;;;;6.25;3.28;;;-2.00;99.90;;;;;;5051945;28;20235;-86
2023/12/25 06:55:35;;;;;;;6.45;3.20;;;-2.00;99.90;;;;;;5049230;28;20189;-85
2023/12/25 06:58:02;;;;;;;5.85;3.10;;;-1.90;99.90;;;;;;5041115;28;20204;-86
2023/12/25 07:00:30;;;;;;;6.82;2.35;;;-2.00;99.90;;;;;;5042706;28;20185;-85
2023/12/25 07:02:57;;;;;;;5.32;2.85;;;-2.00;99.90;;;;;;5042501;28;20185;-84
2023/12/25 07:05:25;;;;;;;6.35;2.67;;;-2.00;99.90;;;;;;5039466;28;20217;-86
2023/12/25 07:07:52;;;;;;;6.60;2.80;;;-2.00;99.90;;;;;;5041741;28;20659;-85
2023/12/25 07:10:20;;;;;;;4.75;2.53;;;-2.00;99.90;;;;;;5057138;28;20205;-86
2023/12/25 07:12:48;;;;;;;6.43;2.90;;;-1.90;99.90;;;;;;5038113;28;20249;-86
2023/12/25 07:15:15;;;;;;;5.63;2.85;;;-1.90;99.90;;;;;;5059891;28;20559;-86
2023/12/25 07:17:42;;;;;;;5.45;2.58;;;-1.90;99.90;;;;;;5041516;28;20188;-86
2023/12/25 07:20:10;;;;;;;5.80;2.38;;;-1.90;99.90;;;;;;5038066;28;20201;-86
2023/12/25 07:22:38;;;;;;;4.70;2.42;;;-1.90;99.90;;;;;;5046562;28;20193;-86
2023/12/25 07:25:06;;;;;;;4.68;2.50;;;-1.90;99.90;;;;;;5042235;28;20277;-85
2023/12/25 07:27:34;;;;;;;5.45;2.38;;;-1.90;99.90;;;;;;5042716;28;20248;-85
2023/12/25 07:30:02;;;;;;;4.38;2.00;;;-1.90;99.90;;;;;;5043673;28;20264;-86
2023/12/25 07:32:30;;;;;;;5.78;2.38;;;-1.90;99.90;;;;;;5039396;28;20201;-85
2023/12/25 07:34:58;;;;;;;4.70;2.20;;;-1.80;99.90;;;;;;5041540;28;20193;-86
2023/12/25 07:37:25;;;;;;;4.80;2.03;;;-1.80;99.90;;;;;;5046017;28;20193;-86
2023/12/25 07:39:52;;;;;;;4.00;2.00;;;-1.70;99.90;;;;;;5044244;28;20650;-86
2023/12/25 07:42:20;;;;;;;5.07;2.15;;;-1.70;99.90;;;;;;5029930;28;20575;-86
2023/12/25 07:44:47;;;;;;;5.57;2.35;;;-1.70;99.90;;;;;;5031209;28;20186;-85
2023/12/25 07:47:15;;;;;;;6.38;2.40;;;-1.70;99.90;;;;;;5029853;28;21197;-85
2023/12/25 07:49:43;;;;;;;3.03;1.80;;;-1.60;99.90;;;;;;5013374;28;20198;-86
2023/12/25 07:52:10;;;;;;;4.18;1.83;;;-1.60;99.90;;;;;;5029927;28;20985;-85
2023/12/25 07:54:37;;;;;;;4.65;2.30;;;-1.60;99.90;;;;;;5031755;28;20693;-85
2023/12/25 07:57:05;;;;;;;4.57;2.10;;;-1.60;99.90;;;;;;5031792;28;20693;-85
2023/12/25 07:59:32;;;;;;;4.50;2.00;;;-1.50;99.90;;;;;;5029542;28;20300;-86
2023/12/25 08:02:00;;;;;;;3.10;1.48;;;-1.50;99.90;;;;;;5031224;28;20240;-86
2023/12/25 08:04:27;;;;;;;3.72;1.80;;;-1.50;99.90;;;;;;5031052;28;20648;-86
2023/12/25 08:06:55;;;;;;;4.03;1.83;;;-1.50;99.90;;;;;;5045513;28;20244;-86
2023/12/25 08:09:23;;;;;;;2.97;1.70;;;-1.40;99.90;;;;;;5047911;28;20952;-86
2023/12/25 08:11:50;;;;;;;3.83;1.70;;;-1.40;99.90;;;;;;5045271;28;20229;-85
2023/12/25 08:14:18;;;;;;;4.30;1.98;;;-1.30;99.90;;;;;;5029285;28;20201;-86
2023/12/25 08:16:45;;;;;;;4.53;2.13;;;-1.30;99.90;;;;;;5047086;28;20193;-87
2023/12/25 08:19:13;;;;;;;3.97;2.20;;;-1.30;99.90;;;;;;5048958;28;20866;-86
2023/12/25 08:21:41;;;;;;;3.88;2.08;;;-1.20;99.90;;;;;;5048884;28;20204;-86
2023/12/25 08:24:08;;;;;;;5.85;2.78;;;-1.20;99.90;;;;;;5049022;28;20564;-85
2023/12/25 08:26:36;;;;;;;3.60;2.03;;;-1.10;99.90;;;;;;5049507;28;20299;-86
2023/12/25 08:29:03;;;;;;;3.00;1.77;;;-1.10;99.90;;;;;;5051284;28;20221;-85
2023/12/25 08:31:31;;;;;;;2.90;1.60;;;-1.10;99.90;;;;;;5038296;28;20197;-86
2023/12/25 08:33:59;;;;;;;2.17;1.40;;;-0.90;99.90;;;;;;5012686;28;20202;-85
2023/12/25 08:36:26;;;;;;;2.38;1.40;;;-0.80;99.90;;;;;;5029142;28;20186;-85
2023/12/25 08:38:54;;;;;;;1.65;1.27;;;-0.70;99.90;;;;;;5012732;28;20305;-85
2023/12/25 08:41:22;;;;;;;4.40;1.40;;;-0.60;99.90;;;;;;5029363;28;20272;-86
2023/12/25 08:43:49;;;;;;;2.22;1.20;;;-0.50;99.90;;;;;;5012772;28;20182;-85
2023/12/25 08:46:17;;;;;;;2.45;1.20;;;-0.50;99.90;;;;;;5035348;28;20185;-85
2023/12/25 08:48:45;;;;;;;2.63;1.30;;;-0.50;99.90;;;;;;5038013;28;20194;-85
2023/12/25 08:51:13;;;;;;;2.47;1.30;;;-0.10;99.90;;;;;;5028554;28;20660;-86
2023/12/25 08:53:42;;;;;;;4.43;1.67;;;-0.10;99.90;;;;;;5028005;28;20280;-85
2023/12/25 08:56:10;;;;;;;3.20;1.65;;;-0.10;99.90;;;;;;5028579;28;20193;-86
2023/12/25 08:58:40;;;;;;;4.72;1.67;;;0.00;99.90;;;;;;5011278;28;20220;-85
2023/12/25 09:01:07;;;;;;;2.65;1.30;;;0.10;99.90;;;;;;5028775;28;20182;-85
2023/12/25 09:03:35;;;;;;;3.35;1.30;;;0.10;99.90;;;;;;5012494;28;20193;-86
2023/12/25 09:06:03;;;;;;;10.00;6.35;;;0.10;99.90;;;;;;5028289;28;20190;-85
2023/12/25 09:08:30;;;;;;;5.60;1.40;;;0.10;99.90;;;;;;5012251;28;20575;-86
2023/12/25 09:10:58;;;;;;;7.47;2.60;;;0.20;99.90;;;;;;5028220;28;20197;-85
2023/12/25 09:13:25;;;;;;;6.15;3.08;;;0.30;99.90;;;;;;5029037;28;20224;-85
2023/12/25 09:15:53;;;;;;;2.53;1.10;;;0.20;99.90;;;;;;5012040;28;20636;-86
2023/12/25 09:18:20;;;;;;;1.30;0.80;;;0.10;99.90;;;;;;5029794;28;20186;-86
2023/12/25 09:20:48;;;;;;;2.05;0.90;;;0.20;99.90;;;;;;5011643;28;20198;-87
2023/12/25 09:23:15;;;;;;;1.70;0.95;;;0.30;99.90;;;;;;5028287;28;20194;-85
2023/12/25 09:25:43;;;;;;;9.30;4.32;;;0.30;99.90;;;;;;5011986;28;20190;-83
2023/12/25 09:28:12;;;;;;;2.25;1.05;;;0.40;99.90;;;;;;5028119;28;20201;-85
2023/12/25 09:30:44;;;;;;;3.45;2.50;;;0.40;99.90;;;;;;5013190;28;20259;-85
2023/12/25 09:33:12;;;;;;;6.50;2.67;;;0.30;99.90;;;;;;5027803;28;20194;-85
2023/12/25 09:35:40;;;;;;;2.85;2.60;;;0.30;99.90;;;;;;5031130;28;20198;-85
2023/12/25 09:38:07;;;;;;;1.83;0.57;;;0.40;99.90;;;;;;5045104;28;20204;-85
2023/12/25 09:40:35;;;;;;;0.63;0.50;;;0.40;99.90;;;;;;5028412;28;20209;-85
2023/12/25 09:43:03;;;;;;;3.25;0.60;;;0.40;99.90;;;;;;5044557;28;20197;-86
2023/12/25 09:45:34;;;;;;;0.88;0.50;;;0.30;99.90;;;;;;5044596;28;20215;-86
2023/12/25 09:48:02;;;;;;;0.85;0.47;;;0.30;99.90;;;;;;5028257;28;20175;-86
2023/12/25 09:50:36;;;;;;;3.00;0.50;;;0.30;99.90;;;;;;5027791;28;20193;-85
2023/12/25 09:53:04;;;;;;;1.05;0.40;;;0.30;99.90;;;;;;5028728;28;20261;-86
2023/12/25 09:55:32;;;;;;;1.58;0.60;;;0.30;99.90;;;;;;5047298;28;20221;-86
2023/12/25 09:58:06;;;;;;;1.95;0.50;;;0.30;99.90;;;;;;5035962;28;20194;-87
2023/12/25 10:00:36;;;;;;;1.05;0.45;;;0.30;99.90;;;;;;5047732;28;20198;-86
2023/12/25 10:03:05;;;;;;;1.20;0.60;;;0.40;99.90;;;;;;5028383;28;20555;-86
2023/12/25 10:05:32;;;;;;;3.97;0.90;;;0.30;99.90;;;;;;5047900;28;20209;-86
2023/12/25 10:08:00;;;;;;;1.35;0.80;;;0.40;99.90;;;;;;5047806;28;20185;-86
2023/12/25 10:10:31;;;;;;;2.22;1.00;;;0.40;99.90;;;;;;5031421;28;20185;-86
2023/12/25 10:13:01;;;;;;;1.80;1.00;;;0.40;99.90;;;;;;5028355;28;20221;-86
2023/12/25 10:15:28;;;;;;;3.08;1.35;;;0.40;99.90;;;;;;5044026;28;20556;-86
2023/12/25 10:18:07;;;;;;;2.55;1.55;;;0.50;99.90;;;;;;5044366;28;20197;-85
2023/12/25 10:20:35;;;;;;;2.40;1.30;;;0.50;99.90;;;;;;5027551;28;20791;-85
2023/12/25 10:23:12;;;;;;;2.67;1.40;;;0.60;99.90;;;;;;5028923;28;20197;-86
2023/12/25 10:25:49;;;;;;;2.17;1.20;;;0.60;99.90;;;;;;5029045;28;20245;-86
2023/12/25 10:28:16;;;;;;;2.47;1.35;;;0.60;99.90;;;;;;5028203;28;20186;-86
2023/12/25 10:30:44;;;;;;;3.95;1.50;;;0.60;99.90;;;;;;5028945;28;20190;-85
2023/12/25 10:33:15;;;;;;;4.38;1.38;;;0.60;99.90;;;;;;5029733;28;20261;-87
2023/12/25 10:35:43;;;;;;;3.10;1.00;;;0.60;99.90;;;;;;5032615;28;20185;-86
2023/12/25 10:38:21;;;;;;;3.05;1.50;;;0.70;99.90;;;;;;5046124;28;20205;-86
2023/12/25 10:40:49;;;;;;;5.82;1.52;;;0.70;99.90;;;;;;5047277;28;20540;-86
2023/12/25 10:43:19;;;;;;;4.53;1.27;;;0.70;99.90;;;;;;5032744;28;20192;-85
2023/12/25 10:45:52;;;;;;;4.22;0.88;;;0.70;99.90;;;;;;5047443;28;20178;-86
2023/12/25 10:48:22;;;;;;;3.92;1.00;;;0.60;99.90;;;;;;5032906;28;20197;-86
2023/12/25 10:50:52;;;;;;;2.97;0.70;;;0.70;99.90;;;;;;5031245;28;20197;-86
2023/12/25 10:53:20;;;;;;;2.28;0.90;;;0.60;99.90;;;;;;5047646;28;20225;-87
2023/12/25 10:55:49;;;;;;;3.90;0.88;;;0.60;99.90;;;;;;5030784;28;20204;-86
2023/12/25 10:58:19;;;;;;;1.77;0.70;;;0.70;99.90;;;;;;5031029;28;20266;-87
2023/12/25 11:00:57;;;;;;;3.17;0.93;;;0.70;99.90;;;;;;5044392;28;20672;-86
2023/12/25 11:03:24;;;;;;;3.45;0.80;;;0.70;99.90;;;;;;5030970;28;20184;-86
2023/12/25 11:05:54;;;;;;;4.07;0.90;;;0.70;99.90;;;;;;5047455;28;20182;-86
2023/12/25 11:08:22;;;;;;;2.95;1.00;;;0.70;99.90;;;;;;5032443;28;20205;-85
2023/12/25 11:11:01;;;;;;;3.38;1.10;;;0.70;99.90;;;;;;5030741;28;20197;-86
2023/12/25 11:13:31;;;;;;;2.25;1.10;;;0.70;99.90;;;;;;5031814;28;20599;-86
2023/12/25 11:15:58;;;;;;;2.90;0.90;;;0.70;99.90;;;;;;5031915;28;20189;-86
2023/12/25 11:18:26;;;;;;;2.22;1.15;;;0.70;99.90;;;;;;5031889;28;20186;-87
2023/12/25 11:21:12;;;;;;;2.75;1.17;;;0.70;99.90;;;;;;5031868;28;20508;-88
2023/12/25 11:23:41;;;;;;;2.83;1.40;;;0.70;99.90;;;;;;5032373;28;20198;-87
2023/12/25 11:26:12;;;;;;;4.25;1.63;;;0.70;99.90;;;;;;5031963;28;20603;-87
2023/12/25 11:28:54;;;;;;;3.38;2.40;;;0.70;99.90;;;;;;5014461;28;20636;-87
2023/12/25 11:31:22;;;;;;;7.50;4.72;;;0.70;99.90;;;;;;5032107;28;20170;-88
2023/12/25 11:33:51;;;;;;;6.57;3.80;;;0.70;99.90;;;;;;5032069;28;20197;-87
2023/12/25 11:36:21;;;;;;;5.95;4.22;;;0.70;99.90;;;;;;5030719;28;20269;-87
2023/12/25 11:38:55;;;;;;;9.55;5.32;;;0.80;99.90;;;;;;5031858;28;20265;-88
2023/12/25 11:41:23;;;;;;;17.40;8.23;;;0.80;99.90;;;;;;5046886;28;20209;-87
2023/12/25 11:43:51;;;;;;;21.02;11.38;;;0.80;99.90;;;;;;5047526;28;20185;-88
2023/12/25 11:46:21;;;;;;;32.83;14.93;;;0.80;99.90;;;;;;5066630;28;20243;-88
2023/12/25 11:49:03;;;;;;;27.98;13.73;;;0.80;99.90;;;;;;5051579;28;20173;-87
2023/12/25 11:51:31;;;;;;;24.83;12.50;;;0.80;99.90;;;;;;5033754;28;20563;-87
2023/12/25 11:54:03;;;;;;;21.50;11.70;;;0.90;99.90;;;;;;5051729;28;20231;-87
2023/12/25 11:56:33;;;;;;;22.00;12.38;;;0.90;99.90;;;;;;5050522;28;20185;-88
2023/12/25 11:59:01;;;;;;;18.10;9.45;;;0.90;99.90;;;;;;5050748;28;20535;-87
2023/12/25 12:01:29;;;;;;;14.50;6.75;;;0.90;99.90;;;;;;5066635;28;20229;-87
2023/12/25 12:03:57;;;;;;;13.60;6.53;;;0.80;99.90;;;;;;5050150;28;20189;-87
2023/12/25 12:06:24;;;;;;;6.82;4.13;;;0.80;99.90;;;;;;5049915;28;20280;-87
2023/12/25 12:08:52;;;;;;;12.23;4.55;;;0.90;99.90;;;;;;5049823;28;20193;-88
2023/12/25 12:11:20;;;;;;;7.85;4.78;;;0.90;99.90;;;;;;5050886;28;20320;-86
2023/12/25 12:13:50;;;;;;;10.70;5.45;;;0.90;99.90;;;;;;5049822;28;20312;-88
2023/12/25 12:16:17;;;;;;;14.23;6.15;;;0.90;99.90;;;;;;5049974;28;20225;-89
2023/12/25 12:18:45;;;;;;;10.60;5.70;;;0.90;99.90;;;;;;5048966;28;20193;-85
2023/12/25 12:21:13;;;;;;;12.60;5.47;;;0.90;99.90;;;;;;5048467;28;20216;-87
2023/12/25 12:23:41;;;;;;;29.00;5.35;;;0.90;99.90;;;;;;5064883;28;20173;-87
2023/12/25 12:26:15;;;;;;;18.38;5.55;;;0.90;99.90;;;;;;5065251;28;20189;-88
2023/12/25 12:28:44;;;;;;;11.40;4.03;;;1.00;99.90;;;;;;5050565;28;20788;-88
2023/12/25 12:31:13;;;;;;;7.20;3.50;;;1.00;99.90;;;;;;5044935;28;20193;-87
2023/12/25 12:33:42;;;;;;;8.20;3.35;;;1.10;99.90;;;;;;5050001;28;20185;-85
2023/12/25 12:36:11;;;;;;;5.00;2.65;;;1.10;99.90;;;;;;5048847;28;20193;-88
2023/12/25 12:38:41;;;;;;;11.65;1.85;;;1.10;99.90;;;;;;5065773;28;20243;-86
2023/12/25 12:41:12;;;;;;;5.85;1.50;;;1.20;99.90;;;;;;5049078;28;20263;-87
2023/12/25 12:43:43;;;;;;;2.67;1.35;;;1.30;99.90;;;;;;5049641;28;20173;-86
2023/12/25 12:46:15;;;;;;;3.75;1.35;;;1.30;99.90;;;;;;5050187;28;20635;-86
2023/12/25 12:48:45;;;;;;;3.78;1.13;;;1.50;99.90;;;;;;5060758;28;20193;-87
2023/12/25 12:51:14;;;;;;;5.10;1.33;;;1.50;99.90;;;;;;5051841;28;20216;-87